Time;durP1;ratioP1;P1;durP2;ratioP2;P2;SDS_P1;SDS_P2;PMS_P1;PMS_P2;Temp;Humidity;BMP_temperature;BMP_pressure;BME280_temperature;BME280_humidity;BME280_pressure;Samples;Min_cycle;Max_cycle;Signal;HPM_P1;HPM_P2
2024/02/07 00:02:24;;;;;;;10.50;5.38;;;;;;;11.15;100.00;99149.09;4943653;29;20142;-96
2024/02/07 00:04:50;;;;;;;10.40;5.85;;;;;;;11.20;100.00;99138.34;4946052;29;20470;-95
2024/02/07 00:07:23;;;;;;;19.70;5.50;;;;;;;10.67;100.00;99046.44;4945521;29;20078;-95
2024/02/07 00:10:09;;;;;;;11.05;4.47;;;;;;;11.22;100.00;99142.72;4945912;29;20052;-95
2024/02/07 00:12:38;;;;;;;10.00;4.25;;;;;;;10.88;100.00;99073.44;4943195;29;20080;-96
2024/02/07 00:15:10;;;;;;;8.95;4.30;;;;;;;10.71;100.00;99047.22;4929685;29;20102;-95
2024/02/07 00:17:37;;;;;;;10.65;4.78;;;;;;;11.07;100.00;99108.47;4930451;29;20032;-95
2024/02/07 00:20:04;;;;;;;13.75;5.35;;;;;;;11.12;100.00;99125.19;4945037;29;20060;-96
2024/02/07 00:22:30;;;;;;;10.80;4.22;;;;;;;11.14;100.00;99118.06;4930092;29;20052;-96
2024/02/07 00:24:56;;;;;;;11.93;5.22;;;;;;;11.08;100.00;99119.09;4928647;29;20047;-95
2024/02/07 00:27:25;;;;;;;11.20;4.47;;;;;;;10.56;100.00;99018.31;4929676;29;20143;-96
2024/02/07 00:29:51;;;;;;;12.70;4.50;;;;;;;10.75;100.00;99056.88;4929039;29;20466;-96
2024/02/07 00:32:19;;;;;;;9.50;3.78;;;;;;;10.93;100.00;99089.28;4929270;29;20043;-96
2024/02/07 00:34:45;;;;;;;10.90;4.75;;;;;;;10.67;100.00;99050.88;4929123;29;20055;-95
2024/02/07 00:37:11;;;;;;;15.15;4.90;;;;;;;10.96;100.00;99107.84;4929438;29;20055;-95
2024/02/07 00:39:37;;;;;;;11.55;5.57;;;;;;;10.85;100.00;99089.47;4929571;29;20043;-96
2024/02/07 00:42:03;;;;;;;12.57;5.30;;;;;;;10.88;100.00;99103.56;4929615;29;20043;-95
2024/02/07 00:44:29;;;;;;;11.90;4.85;;;;;;;10.28;100.00;99019.78;4943179;29;20048;-95
2024/02/07 00:46:55;;;;;;;9.82;4.68;;;;;;;10.24;100.00;99012.78;4946599;29;20146;-96
2024/02/07 00:49:24;;;;;;;10.90;4.40;;;;;;;10.28;100.00;99018.94;4947520;29;20043;-95
2024/02/07 00:51:50;;;;;;;10.73;4.95;;;;;;;10.33;100.00;99022.38;4946336;29;20050;-95
2024/02/07 00:54:16;;;;;;;11.38;5.22;;;;;;;10.75;100.00;99104.75;4961425;28;20075;-95
2024/02/07 00:56:42;;;;;;;12.70;4.25;;;;;;;10.52;100.00;99060.06;4945403;29;20458;-95
2024/02/07 00:59:34;;;;;;;8.20;3.80;;;;;;;10.74;100.00;99088.84;4945462;29;20146;-95
2024/02/07 01:02:03;;;;;;;14.20;4.07;;;;;;;10.65;100.00;99058.03;4947067;29;20057;-95
2024/02/07 01:04:32;;;;;;;7.88;3.88;;;;;;;10.60;100.00;99041.28;4948386;29;20043;-95
2024/02/07 01:06:58;;;;;;;11.30;4.35;;;;;;;10.82;100.00;99081.53;4947234;29;20566;-95
2024/02/07 01:09:25;;;;;;;14.15;4.47;;;;;;;10.77;100.00;99067.50;4951688;29;20075;-94
2024/02/07 01:11:51;;;;;;;19.08;4.97;;;;;;;10.95;100.00;99103.44;4944459;29;20044;-94
2024/02/07 01:14:18;;;;;;;15.82;4.38;;;;;;;10.66;100.00;99044.66;4947993;29;20040;-94
2024/02/07 01:27:54;;;;;;;7.10;3.70;;;;;;;11.16;100.00;99089.63;4870368;29;20041;-96
2024/02/07 01:30:23;;;;;;;6.45;3.40;;;;;;;11.12;100.00;99065.78;4855443;29;20041;-95
2024/02/07 01:32:51;;;;;;;10.88;3.85;;;;;;;10.88;100.00;99034.38;4871478;29;20050;-96
2024/02/07 01:35:17;;;;;;;8.93;3.75;;;;;;;10.83;100.00;99022.13;4848596;29;20060;-95
2024/02/07 01:37:43;;;;;;;11.65;4.40;;;;;;;10.85;100.00;99022.97;4852270;29;20057;-96
2024/02/07 01:40:12;;;;;;;8.43;3.95;;;;;;;11.24;100.00;99066.34;4838280;29;20050;-95
2024/02/07 01:42:44;;;;;;;11.10;4.07;;;;;;;10.68;100.00;98986.13;4852697;29;20049;-96
2024/02/07 01:45:30;;;;;;;11.32;4.07;;;;;;;11.06;100.00;99045.50;4834517;29;20050;-94
2024/02/07 01:47:57;;;;;;;15.13;4.28;;;;;;;11.09;100.00;99038.31;4835936;29;20098;-95
2024/02/07 01:50:24;;;;;;;7.97;3.92;;;;;;;10.96;100.00;99009.41;4834102;29;20141;-96
2024/02/07 01:52:54;;;;;;;10.18;3.75;;;;;;;10.74;100.00;98958.53;4847612;29;20053;-95
2024/02/07 01:55:21;;;;;;;9.27;4.57;;;;;;;11.14;100.00;99032.00;4831767;29;20042;-95
2024/02/07 01:57:48;;;;;;;9.55;4.13;;;;;;;11.23;100.00;99037.09;4867250;29;20053;-95
2024/02/07 02:00:15;;;;;;;11.45;4.57;;;;;;;10.81;100.00;98966.28;4869600;29;20053;-96
2024/02/07 02:02:47;;;;;;;9.70;3.90;;;;;;;10.89;100.00;98993.59;4880416;29;20059;-95
2024/02/07 02:05:13;;;;;;;8.32;4.25;;;;;;;11.12;100.00;99039.16;4925655;29;20044;-95
2024/02/07 02:07:40;;;;;;;8.10;3.85;;;;;;;10.94;100.00;99006.78;4908462;29;20036;-94
2024/02/07 02:10:07;;;;;;;10.52;3.88;;;;;;;11.08;100.00;99035.69;4910211;29;20048;-95
2024/02/07 02:12:34;;;;;;;10.40;3.95;;;;;;;10.56;100.00;98938.53;4909060;29;20052;-95
2024/02/07 02:15:01;;;;;;;9.48;4.68;;;;;;;11.00;100.00;99027.03;4932192;29;20056;-96
2024/02/07 02:17:27;;;;;;;11.07;4.20;;;;;;;10.76;100.00;98964.69;4911488;29;20058;-94
2024/02/07 02:19:55;;;;;;;14.68;4.90;;;;;;;11.08;100.00;98996.66;4907580;29;20486;-95
2024/02/07 02:22:47;;;;;;;12.73;3.70;;;;;;;10.76;100.00;98938.94;4905645;29;20107;-94
2024/02/07 02:25:38;;;;;;;10.30;4.32;;;;;;;10.81;100.00;98968.94;4907288;29;20051;-94
2024/02/07 02:28:17;;;;;;;9.73;4.50;;;;;;;10.85;100.00;98969.75;4907756;29;20044;-96
2024/02/07 02:30:50;;;;;;;21.83;5.25;;;;;;;11.17;100.00;99013.28;4906984;29;20085;-95
2024/02/07 02:33:25;;;;;;;9.25;4.13;;;;;;;10.55;100.00;98926.19;4908750;29;20039;-94
2024/02/07 02:35:53;;;;;;;11.63;4.28;;;;;;;10.72;100.00;98929.28;4925277;29;20035;-95
2024/02/07 02:38:20;;;;;;;9.70;4.57;;;;;;;10.80;100.00;98924.66;4942359;29;20040;-94
2024/02/07 02:40:48;;;;;;;7.97;4.43;;;;;;;11.03;100.00;98982.59;4942967;29;20048;-94
2024/02/07 02:43:16;;;;;;;12.00;4.90;;;;;;;10.83;100.00;98942.31;4942463;29;20063;-95
2024/02/07 02:45:42;;;;;;;11.70;4.50;;;;;;;10.63;100.00;98902.94;4941539;29;20064;-95
2024/02/07 02:48:10;;;;;;;12.85;5.07;;;;;;;10.63;100.00;98918.88;4946525;29;20051;-96
2024/02/07 02:50:37;;;;;;;9.30;4.28;;;;;;;10.94;100.00;98977.50;4948592;29;20120;-94
2024/02/07 02:53:04;;;;;;;13.48;4.18;;;;;;;10.88;100.00;98975.00;4942791;29;20390;-95
2024/02/07 02:55:51;;;;;;;13.13;4.55;;;;;;;10.41;100.00;98891.94;4941696;29;20067;-95
2024/02/07 02:58:52;;;;;;;10.68;4.50;;;;;;;10.48;100.00;98898.88;4928951;29;20047;-94
2024/02/07 03:01:23;;;;;;;9.38;4.53;;;;;;;10.69;100.00;98921.38;4939374;29;20054;-95
2024/02/07 03:03:53;;;;;;;11.32;4.72;;;;;;;10.52;100.00;98911.19;4942970;29;20043;-95
2024/02/07 03:06:28;;;;;;;11.48;5.50;;;;;;;10.94;100.00;98992.59;4948052;29;20070;-94
2024/02/07 03:09:06;;;;;;;10.48;4.78;;;;;;;10.92;100.00;98960.69;4941061;29;20040;-95
2024/02/07 03:11:32;;;;;;;13.48;5.00;;;;;;;10.72;100.00;98929.28;4939687;29;20047;-95
2024/02/07 03:14:01;;;;;;;9.65;4.63;;;;;;;11.09;100.00;98974.44;4940853;29;20117;-95
2024/02/07 03:16:28;;;;;;;10.65;3.65;;;;;;;10.98;100.00;98957.03;4940256;29;20139;-95
2024/02/07 03:18:58;;;;;;;15.02;4.70;;;;;;;10.97;100.00;98965.91;4940501;29;20393;-95
2024/02/07 03:21:26;;;;;;;10.07;4.35;;;;;;;10.87;100.00;98946.66;4941028;29;20051;-95
2024/02/07 03:23:52;;;;;;;9.80;4.50;;;;;;;10.71;100.00;98919.53;4940988;29;20051;-95
2024/02/07 03:26:19;;;;;;;11.65;4.28;;;;;;;11.00;100.00;98958.72;4939391;29;20044;-96
2024/02/07 03:28:45;;;;;;;7.55;4.28;;;;;;;10.72;100.00;98913.34;4940403;29;20517;-95
2024/02/07 03:31:11;;;;;;;15.40;5.32;;;;;;;11.01;100.00;98944.50;4940123;29;20044;-93
2024/02/07 03:33:37;;;;;;;11.63;4.00;;;;;;;10.84;100.00;98897.06;4940424;29;20055;-94
2024/02/07 03:36:08;;;;;;;11.30;4.40;;;;;;;10.60;100.00;98869.28;4940061;29;20071;-95
2024/02/07 03:38:34;;;;;;;12.20;4.50;;;;;;;10.58;100.00;98867.59;4939851;29;20043;-96
2024/02/07 03:41:01;;;;;;;9.70;4.40;;;;;;;11.05;100.00;98934.66;4938901;29;20048;-95
2024/02/07 03:43:27;;;;;;;12.07;4.22;;;;;;;11.02;100.00;98924.09;4941926;29;20048;-94
2024/02/07 03:45:53;;;;;;;7.97;3.45;;;;;;;11.17;100.00;98947.66;4943410;29;20040;-95
2024/02/07 03:48:19;;;;;;;10.40;3.92;;;;;;;11.27;100.00;98953.59;4943737;29;20051;-95
2024/02/07 03:50:48;;;;;;;13.60;4.45;;;;;;;11.18;100.00;98943.19;4942814;29;20450;-92
2024/02/07 03:53:16;;;;;;;8.88;3.97;;;;;;;10.97;100.00;98913.56;4941837;29;20051;-94
2024/02/07 03:55:42;;;;;;;13.93;4.18;;;;;;;11.06;100.00;98931.97;4940890;29;20047;-95
2024/02/07 03:58:08;;;;;;;10.68;4.35;;;;;;;10.85;100.00;98877.50;4941871;29;20446;-95
2024/02/07 04:00:34;;;;;;;10.32;4.10;;;;;;;11.07;100.00;98911.53;4946891;29;20082;-95
2024/02/07 04:03:01;;;;;;;9.15;4.28;;;;;;;10.78;100.00;98875.94;4953719;29;20070;-95
2024/02/07 04:05:27;;;;;;;11.95;4.95;;;;;;;11.05;100.00;98934.66;4948772;29;20044;-95
2024/02/07 04:07:53;;;;;;;7.65;3.83;;;;;;;11.21;100.00;98948.41;4942891;29;20110;-95
2024/02/07 04:10:23;;;;;;;7.43;4.20;;;;;;;11.18;100.00;98929.88;4943208;29;20086;-95
2024/02/07 05:15:39;;;;;;;11.73;5.47;;;;;;;11.01;100.00;98906.38;5136390;27;20405;-95
2024/02/07 05:18:05;;;;;;;9.90;4.57;;;;;;;10.66;100.00;98847.00;5136904;28;20071;-96
2024/02/07 05:20:31;;;;;;;12.80;4.80;;;;;;;10.52;100.00;98834.06;5136678;28;20097;-95
2024/02/07 05:22:58;;;;;;;10.32;4.72;;;;;;;10.59;100.00;98854.25;5135941;28;20051;-96
2024/02/07 05:25:24;;;;;;;10.43;4.55;;;;;;;10.78;100.00;98881.25;5135490;28;20035;-96
2024/02/07 05:27:51;;;;;;;12.73;4.65;;;;;;;10.46;100.00;98828.91;5136846;28;20044;-95
2024/02/07 05:30:17;;;;;;;15.10;3.95;;;;;;;10.64;100.00;98843.50;5135934;28;20043;-95
2024/02/07 05:32:45;;;;;;;12.60;3.78;;;;;;;10.83;100.00;98884.66;5136052;28;20051;-95
2024/02/07 05:35:11;;;;;;;10.82;4.57;;;;;;;10.51;100.00;98842.06;5135426;28;20039;-95
2024/02/07 05:37:37;;;;;;;11.07;4.38;;;;;;;10.39;100.00;98827.31;5141379;28;20093;-96
2024/02/07 05:40:05;;;;;;;8.65;3.80;;;;;;;10.62;100.00;98878.09;5136312;28;20043;-95
2024/02/07 05:42:31;;;;;;;10.13;4.10;;;;;;;10.26;100.00;98813.44;5135718;28;20092;-95
2024/02/07 05:44:57;;;;;;;10.93;4.68;;;;;;;10.24;100.00;98821.44;5136330;28;20023;-95
2024/02/07 05:47:23;;;;;;;11.43;4.15;;;;;;;10.41;100.00;98866.25;5135886;28;20067;-95
2024/02/07 05:49:51;;;;;;;11.40;4.32;;;;;;;10.28;100.00;98856.78;5135399;28;20050;-96
2024/02/07 05:52:19;;;;;;;11.43;3.90;;;;;;;10.32;100.00;98881.53;5134491;28;20043;-96
2024/02/07 05:54:45;;;;;;;10.13;4.90;;;;;;;10.19;100.00;98865.88;5135621;28;20070;-95
2024/02/07 05:57:14;;;;;;;8.63;5.22;;;;;;;10.24;100.00;98887.00;5136216;28;20400;-95
2024/02/07 05:59:41;;;;;;;13.45;4.63;;;;;;;9.95;100.00;98834.53;5136733;28;20112;-95
2024/02/07 06:02:07;;;;;;;12.32;4.32;;;;;;;9.79;100.00;98812.78;5136342;28;20043;-96
2024/02/07 06:04:34;;;;;;;13.35;4.60;;;;;;;10.18;100.00;98863.25;5136393;28;20046;-96
2024/02/07 06:07:01;;;;;;;13.30;4.95;;;;;;;10.25;100.00;98880.78;5136610;28;20043;-95
2024/02/07 06:09:27;;;;;;;13.65;5.57;;;;;;;10.22;100.00;98878.19;5136206;28;20369;-94
2024/02/07 06:11:53;;;;;;;10.65;4.90;;;;;;;10.19;100.00;98863.22;5137365;28;20043;-96
2024/02/07 06:14:20;;;;;;;15.68;5.20;;;;;;;10.35;100.00;98877.03;5136783;28;20047;-95
2024/02/07 06:16:46;;;;;;;17.85;5.85;;;;;;;10.32;100.00;98866.44;5135651;28;20039;-95
2024/02/07 06:19:12;;;;;;;13.45;6.07;;;;;;;10.45;100.00;98873.22;5135117;28;20425;-96
2024/02/07 06:21:38;;;;;;;15.32;5.70;;;;;;;10.26;100.00;98861.28;5137192;28;20047;-95
2024/02/07 06:24:06;;;;;;;13.27;5.43;;;;;;;10.07;100.00;98800.59;5135453;28;20035;-94
2024/02/07 06:26:32;;;;;;;13.82;6.18;;;;;;;10.57;100.00;98872.03;5126053;28;20440;-95
2024/02/07 06:28:58;;;;;;;12.02;4.95;;;;;;;10.29;100.00;98821.34;5123538;28;20119;-94
2024/02/07 06:31:24;;;;;;;14.73;5.50;;;;;;;10.44;100.00;98847.53;5122382;28;20074;-95
2024/02/07 06:33:50;;;;;;;14.00;5.03;;;;;;;10.31;100.00;98800.06;5122415;28;20047;-94
2024/02/07 06:36:16;;;;;;;12.30;4.78;;;;;;;10.71;100.00;98861.03;5119369;28;20048;-95
2024/02/07 06:38:45;;;;;;;11.80;4.75;;;;;;;10.28;100.00;98816.94;5122061;28;20134;-96
2024/02/07 06:41:12;;;;;;;12.60;5.32;;;;;;;10.47;100.00;98820.91;5121155;28;20036;-96
2024/02/07 06:43:38;;;;;;;11.77;5.15;;;;;;;10.40;100.00;98806.00;5124065;28;20047;-95
2024/02/07 06:46:04;;;;;;;11.57;4.93;;;;;;;10.44;100.00;98823.63;5122734;28;20067;-96
2024/02/07 06:48:30;;;;;;;10.45;5.50;;;;;;;10.61;100.00;98849.78;5122631;28;20044;-95
2024/02/07 06:50:56;;;;;;;11.02;5.20;;;;;;;10.68;100.00;98850.50;5121565;28;20045;-96
2024/02/07 06:53:22;;;;;;;11.63;6.55;;;;;;;10.62;100.00;98846.19;5123332;28;20036;-95
2024/02/07 06:55:53;;;;;;;17.98;6.60;;;;;;;10.45;100.00;98822.72;5122390;28;20040;-96
2024/02/07 06:58:20;;;;;;;16.30;5.78;;;;;;;10.42;100.00;98798.00;5122220;28;20036;-95
2024/02/07 07:00:46;;;;;;;16.98;5.45;;;;;;;10.82;100.00;98853.66;5120914;28;20065;-95
2024/02/07 07:03:12;;;;;;;19.25;6.75;;;;;;;10.82;100.00;98832.38;5121825;28;20070;-95
2024/02/07 07:05:38;;;;;;;17.23;6.40;;;;;;;10.57;100.00;98802.91;5123242;28;20052;-94
2024/02/07 07:08:04;;;;;;;14.07;6.43;;;;;;;10.84;100.00;98851.84;5120975;28;20040;-94
2024/02/07 07:10:30;;;;;;;17.40;5.88;;;;;;;10.63;100.00;98817.84;5120727;28;20069;-96
2024/02/07 07:12:56;;;;;;;13.52;6.15;;;;;;;10.89;100.00;98841.06;5122783;28;20024;-95
2024/02/07 07:15:23;;;;;;;17.58;6.88;;;;;;;10.76;100.00;98799.75;5121557;28;20044;-96
2024/02/07 07:17:49;;;;;;;15.30;7.35;;;;;;;11.24;100.00;98858.72;5121693;28;20460;-96
2024/02/07 07:20:15;;;;;;;18.08;5.63;;;;;;;11.24;100.00;98853.38;5118540;28;20036;-94
2024/02/07 07:22:41;;;;;;;14.55;6.35;;;;;;;11.20;100.00;98851.72;5119996;28;20085;-94
2024/02/07 07:25:07;;;;;;;15.02;5.78;;;;;;;11.23;100.00;98824.13;5120438;28;20043;-94
2024/02/07 07:27:33;;;;;;;16.05;6.40;;;;;;;11.49;100.00;98844.69;5120345;28;20043;-94
2024/02/07 07:29:59;;;;;;;15.82;6.47;;;;;;;11.42;100.00;98828.00;5121163;28;20043;-96
2024/02/07 07:32:26;;;;;;;13.45;5.65;;;;;;;11.51;100.00;98853.50;5119957;28;20048;-95
2024/02/07 07:34:52;;;;;;;16.83;6.47;;;;;;;11.28;100.00;98815.13;5119380;28;20089;-95
2024/02/07 07:37:18;;;;;;;17.88;6.88;;;;;;;11.47;100.00;98871.38;5117292;28;20048;-95
2024/02/07 07:39:44;;;;;;;15.07;6.13;;;;;;;11.44;100.00;98844.81;5119825;28;20044;-94
2024/02/07 07:42:11;;;;;;;19.75;6.72;;;;;;;11.49;100.00;98850.00;5119302;28;20042;-95
2024/02/07 07:44:38;;;;;;;17.40;7.22;;;;;;;11.41;100.00;98844.06;5120201;28;20088;-96
2024/02/07 07:47:06;;;;;;;13.63;6.82;;;;;;;11.19;100.00;98839.34;5120651;28;20048;-96
2024/02/07 07:49:33;;;;;;;14.10;7.00;;;;;;;11.30;100.00;98847.03;5119581;28;20051;-94
2024/02/07 07:52:04;;;;;;;17.35;7.00;;;;;;;11.31;100.00;98843.44;5119449;28;20134;-95
2024/02/07 07:54:29;;;;;;;19.55;6.68;;;;;;;10.94;100.00;98775.28;5118724;28;20085;-95
2024/02/07 07:56:57;;;;;;;16.33;6.82;;;;;;;11.33;100.00;98849.59;5119751;28;20027;-94
2024/02/07 07:59:23;;;;;;;15.48;6.70;;;;;;;11.16;100.00;98812.81;5121262;28;20042;-95
2024/02/07 08:01:56;;;;;;;19.35;8.00;;;;;;;10.94;100.00;98769.09;5122432;28;20071;-94
2024/02/07 08:04:22;;;;;;;18.35;6.75;;;;;;;11.00;100.00;98785.75;5120731;27;20061;-95
2024/02/07 08:06:50;;;;;;;26.38;8.13;;;;;;;11.44;100.00;98849.28;5118852;27;20043;-95
2024/02/07 08:09:17;;;;;;;12.88;7.05;;;;;;;11.41;100.00;98850.25;5121783;28;20086;-95
2024/02/07 08:11:43;;;;;;;19.73;7.20;;;;;;;11.13;100.00;98812.91;5122107;28;20026;-94
2024/02/07 08:14:09;;;;;;;17.90;6.70;;;;;;;11.00;100.00;98791.09;5120996;28;20567;-93
2024/02/07 08:16:35;;;;;;;18.73;7.85;;;;;;;10.86;100.00;98796.81;5121673;28;20040;-94
2024/02/07 08:19:00;;;;;;;15.32;6.88;;;;;;;11.09;100.00;98835.19;5120685;28;20488;-94
2024/02/07 08:21:26;;;;;;;24.77;9.40;;;;;;;11.06;100.00;98820.19;5121639;28;20070;-96
2024/02/07 08:24:00;;;;;;;23.23;7.85;;;;;;;11.16;100.00;98819.91;5122199;28;20081;-95
2024/02/07 08:26:31;;;;;;;;;;;;;;;11.37;100.00;98863.69;5114428;28;20047;-95
2024/02/07 08:29:09;;;;;;;15.10;7.38;;;;;;;11.41;100.00;98844.91;5121310;28;19927;-96
2024/02/07 08:31:35;;;;;;;19.67;7.40;;;;;;;11.00;100.00;98790.22;5112562;28;20063;-95
2024/02/07 08:34:02;;;;;;;16.65;7.15;;;;;;;11.36;100.00;98844.16;5123073;28;20134;-94
2024/02/07 08:36:28;;;;;;;16.15;6.55;;;;;;;11.16;100.00;98769.34;5120393;28;20063;-94
2024/02/07 08:38:56;;;;;;;17.35;7.07;;;;;;;11.46;100.00;98800.38;5118651;28;20108;-94
2024/02/07 08:41:22;;;;;;;14.80;7.25;;;;;;;11.94;100.00;98862.88;5117658;28;20054;-94
2024/02/07 08:43:48;;;;;;;17.23;7.22;;;;;;;11.87;100.00;98822.22;5118145;28;20040;-93
2024/02/07 08:46:14;;;;;;;19.77;6.80;;;;;;;11.82;100.00;98788.63;5118128;28;20111;-94
2024/02/07 08:48:40;;;;;;;14.23;6.28;;;;;;;12.38;100.00;98817.06;5117561;28;20057;-94
2024/02/07 08:51:06;;;;;;;19.25;8.55;;;;;;;12.50;100.00;98849.53;5117948;28;20043;-94
2024/02/07 08:53:32;;;;;;;15.55;7.72;;;;;;;12.46;100.00;98797.19;5118664;28;20096;-94
2024/02/07 08:55:59;;;;;;;17.45;8.35;;;;;;;12.91;100.00;98825.00;5116082;28;20062;-95
2024/02/07 08:58:25;;;;;;;18.67;7.93;;;;;;;12.91;100.00;98812.53;5118904;28;20043;-94
2024/02/07 09:00:51;;;;;;;43.22;26.77;;;;;;;13.20;100.00;98825.75;5116446;28;20055;-95
2024/02/07 09:03:17;;;;;;;18.38;9.27;;;;;;;13.35;100.00;98806.50;5117656;28;20385;-94
2024/02/07 09:05:43;;;;;;;12.65;6.68;;;;;;;13.59;100.00;98847.44;5117277;28;20039;-95
2024/02/07 09:08:09;;;;;;;19.63;9.13;;;;;;;13.84;100.00;98846.53;5117417;28;20061;-94
2024/02/07 09:10:36;;;;;;;22.13;10.68;;;;;;;14.00;100.00;98820.91;5117920;28;20069;-93
2024/02/07 09:13:03;;;;;;;23.40;9.93;;;;;;;14.19;100.00;98826.38;5117351;28;20113;-95
2024/02/07 09:15:29;;;;;;;18.52;7.43;;;;;;;14.23;100.00;98797.72;5117056;28;20079;-96
2024/02/07 09:17:55;;;;;;;23.77;12.30;;;;;;;14.45;100.00;98811.91;5118035;28;20532;-95
2024/02/07 09:20:21;;;;;;;17.95;10.77;;;;;;;14.51;100.00;98825.06;5117619;28;20028;-95
2024/02/07 09:22:47;;;;;;;22.13;11.15;;;;;;;14.14;100.00;98782.94;5117905;28;20047;-95
2024/02/07 09:25:14;;;;;;;18.40;10.65;;;;;;;14.30;100.00;98781.34;5117616;28;20075;-94
2024/02/07 09:27:41;;;;;;;20.08;11.48;;;;;;;14.16;100.00;98773.91;5117963;28;20051;-94
2024/02/07 09:30:10;;;;;;;13.38;6.32;;;;;;;14.72;100.00;98833.13;5118604;28;20040;-96
2024/02/07 09:32:36;;;;;;;20.77;11.57;;;;;;;14.45;100.00;98792.34;5117987;28;20028;-95
2024/02/07 09:35:04;;;;;;;19.50;8.18;;;;;;;14.55;100.00;98774.97;5115984;28;20032;-95
2024/02/07 09:37:30;;;;;;;17.65;7.15;;;;;;;14.61;100.00;98795.25;5115213;28;20070;-95
2024/02/07 09:39:56;;;;;;;25.92;15.48;;;;;;;14.60;100.00;98758.72;5114885;28;20048;-95
2024/02/07 09:42:23;;;;;;;26.90;8.68;;;;;;;14.54;100.00;98763.34;5115271;28;20040;-95
2024/02/07 09:44:51;;;;;;;25.25;10.63;;;;;;;14.89;100.00;98810.97;5116134;28;20085;-95
2024/02/07 09:47:19;;;;;;;20.23;8.70;;;;;;;14.96;100.00;98799.03;5115480;28;20393;-96
2024/02/07 09:49:47;;;;;;;19.10;7.30;;;;;;;14.94;100.00;98776.81;5108941;28;20044;-95
2024/02/07 09:52:14;;;;;;;13.68;7.50;;;;;;;14.98;100.00;98787.34;5115444;28;20080;-94
2024/02/07 09:54:42;;;;;;;14.43;6.57;;;;;;;15.30;100.00;98774.28;5117161;28;20127;-95
2024/02/07 09:57:08;;;;;;;11.65;6.22;;;;;;;15.52;100.00;98790.22;5117337;28;20396;-95
2024/02/07 09:59:35;;;;;;;10.18;5.18;;;;;;;15.76;100.00;98760.56;5117462;28;20040;-96
2024/02/07 10:02:04;;;;;;;9.05;5.35;;;;;;;15.52;100.00;98768.78;5120113;28;20100;-95
2024/02/07 10:04:37;;;;;;;16.50;11.60;;;;;;;14.97;100.00;98740.06;5122318;28;20071;-95
2024/02/07 10:07:09;;;;;;;9.93;4.82;;;;;;;15.28;100.00;98770.81;5118141;28;20126;-94
2024/02/07 10:09:36;;;;;;;10.52;5.85;;;;;;;15.24;100.00;98758.50;5118293;28;20067;-95
2024/02/07 10:12:02;;;;;;;8.00;4.43;;;;;;;15.22;100.00;98765.72;5126949;28;20040;-96
2024/02/07 10:14:31;;;;;;;7.78;3.53;;;;;;;14.96;100.00;98721.41;5134906;28;20087;-94
2024/02/07 10:16:58;;;;;;;5.88;3.25;;;;;;;14.99;100.00;98726.63;5132470;28;20023;-95
2024/02/07 10:19:25;;;;;;;6.60;3.10;;;;;;;15.05;100.00;98726.34;5132196;28;20044;-94
2024/02/07 10:21:54;;;;;;;9.90;3.00;;;;;;;14.91;100.00;98743.03;5129100;28;20038;-96
2024/02/07 10:24:21;;;;;;;6.40;3.05;;;;;;;15.18;100.00;98780.22;5133866;28;20055;-94
2024/02/07 10:26:52;;;;;;;5.22;2.58;;;;;;;14.72;100.00;98718.88;5129662;28;20065;-93
2024/02/07 10:29:21;;;;;;;8.13;2.72;;;;;;;14.84;100.00;98714.81;5133152;28;20110;-94
2024/02/07 10:31:52;;;;;;;8.60;3.90;;;;;;;14.86;100.00;98704.91;5132303;28;20040;-95
2024/02/07 10:34:19;;;;;;;8.38;3.35;;;;;;;14.72;100.00;98726.91;5133560;28;20044;-95
2024/02/07 10:36:45;;;;;;;15.23;7.28;;;;;;;14.87;100.00;98764.66;5132571;28;20043;-95
2024/02/07 10:39:34;;;;;;;8.60;4.10;;;;;;;14.36;100.00;98730.25;5134117;28;20103;-94
2024/02/07 10:42:08;;;;;;;11.98;5.45;;;;;;;14.29;100.00;98734.13;5128167;28;20047;-94
2024/02/07 10:44:37;;;;;;;9.93;5.47;;;;;;;14.02;100.00;98696.03;5129774;28;20046;-93
2024/02/07 10:47:11;;;;;;;8.68;4.63;;;;;;;13.81;100.00;98703.16;5129738;28;20166;-93
2024/02/07 10:49:39;;;;;;;9.65;4.57;;;;;;;13.97;100.00;98747.03;5132059;28;20039;-94
2024/02/07 10:52:11;;;;;;;9.90;4.38;;;;;;;13.81;100.00;98712.97;5133776;28;20024;-93
2024/02/07 10:54:47;;;;;;;9.93;4.57;;;;;;;13.80;100.00;98736.16;5132952;28;20495;-94
2024/02/07 10:57:14;;;;;;;;;;;;;;;13.79;100.00;98739.75;5118683;28;20043;-93
2024/02/07 10:59:41;;;;;;;7.03;3.78;;;;;;;13.56;100.00;98705.97;5128395;28;19919;-94
2024/02/07 11:02:13;;;;;;;10.85;4.38;;;;;;;13.65;100.00;98734.97;5125977;28;20036;-95
2024/02/07 11:04:43;;;;;;;9.15;3.90;;;;;;;13.41;100.00;98712.78;5129482;28;20119;-96
2024/02/07 11:07:13;;;;;;;11.68;5.35;;;;;;;13.29;100.00;98719.50;5126465;28;20047;-92
2024/02/07 11:09:43;;;;;;;11.45;4.75;;;;;;;13.44;100.00;98715.31;5131211;28;20067;-96
2024/02/07 11:12:09;;;;;;;14.30;4.40;;;;;;;13.58;100.00;98703.25;5119725;28;20092;-93
2024/02/07 11:14:37;;;;;;;7.97;3.90;;;;;;;13.66;100.00;98695.75;5119352;28;20043;-94
2024/02/07 11:17:17;;;;;;;8.32;4.57;;;;;;;14.00;100.00;98715.75;5133342;28;20077;-95
2024/02/07 11:19:44;;;;;;;7.90;4.47;;;;;;;14.12;100.00;98709.91;5128797;28;20043;-94
2024/02/07 11:22:17;;;;;;;11.48;5.30;;;;;;;14.34;100.00;98696.47;5132599;28;20023;-92
2024/02/07 11:25:00;;;;;;;14.93;5.90;;;;;;;14.23;100.00;98645.28;5130591;28;20102;-94
2024/02/07 11:27:26;;;;;;;17.83;7.07;;;;;;;14.83;100.00;98683.59;5132032;28;20035;-94
2024/02/07 11:29:54;;;;;;;13.32;5.85;;;;;;;14.98;100.00;98674.00;5131467;28;20023;-96
2024/02/07 11:32:21;;;;;;;17.88;8.57;;;;;;;14.96;100.00;98658.03;5128766;28;20077;-93
2024/02/07 11:34:52;;;;;;;15.05;5.05;;;;;;;15.02;100.00;98650.63;5131680;28;20047;-93
2024/02/07 11:37:20;;;;;;;18.92;8.98;;;;;;;15.17;100.00;98674.00;5129989;28;20131;-94
2024/02/07 11:39:49;;;;;;;16.42;8.57;;;;;;;15.29;100.00;98675.22;5119764;28;20044;-94
2024/02/07 11:42:18;;;;;;;9.68;4.32;;;;;;;15.26;100.00;98681.59;5118913;28;20488;-96
2024/02/07 11:44:49;;;;;;;11.52;4.00;;;;;;;15.04;100.00;98668.34;5118879;28;20089;-95
2024/02/07 11:47:22;;;;;;;8.45;4.90;;;;;;;14.57;100.00;98669.63;5115403;28;20392;-95
2024/02/07 11:49:54;;;;;;;10.80;4.78;;;;;;;14.46;100.00;98631.72;5118414;28;20493;-94
2024/02/07 11:52:24;;;;;;;14.15;5.95;;;;;;;14.73;100.00;98655.53;5117591;28;20047;-94
2024/02/07 11:54:50;;;;;;;13.98;5.75;;;;;;;15.13;100.00;98669.72;5118537;28;20032;-94
2024/02/07 11:57:18;;;;;;;10.13;4.30;;;;;;;15.10;100.00;98621.69;5118033;28;20126;-93
2024/02/07 11:59:44;;;;;;;7.75;4.40;;;;;;;15.34;100.00;98636.56;5117429;28;20431;-93
2024/02/07 12:02:10;;;;;;;11.85;3.55;;;;;;;15.38;100.00;98646.19;5116644;28;20039;-92
2024/02/07 12:04:39;;;;;;;7.60;3.42;;;;;;;15.19;100.00;98640.84;5117718;28;20519;-93
2024/02/07 12:07:05;;;;;;;10.77;3.35;;;;;;;14.87;100.00;98606.69;5116420;28;20036;-94
2024/02/07 12:09:32;;;;;;;9.98;4.75;;;;;;;14.86;100.00;98615.69;5114234;28;20574;-93
2024/02/07 12:11:59;;;;;;;12.38;5.28;;;;;;;14.78;100.00;98618.72;5116543;28;20148;-95
2024/02/07 12:14:26;;;;;;;8.18;4.68;;;;;;;14.64;100.00;98586.34;5117707;28;20050;-94
2024/02/07 12:16:53;;;;;;;7.85;3.97;;;;;;;15.00;100.00;98638.16;5117824;28;20062;-94
2024/02/07 12:19:19;;;;;;;11.32;3.78;;;;;;;14.95;100.00;98637.53;5120993;27;20043;-94
2024/02/07 12:21:46;;;;;;;10.05;4.13;;;;;;;14.71;100.00;98582.47;5117905;27;20538;-95
2024/02/07 12:24:13;;;;;;;8.07;4.22;;;;;;;14.95;100.00;98629.50;5119075;27;20040;-94
2024/02/07 12:26:43;;;;;;;7.28;4.38;;;;;;;15.10;100.00;98616.31;5124488;27;20043;-93
2024/02/07 12:29:09;;;;;;;9.98;4.05;;;;;;;15.22;100.00;98623.75;5123395;27;20043;-94
2024/02/07 12:31:37;;;;;;;14.77;4.72;;;;;;;15.24;100.00;98608.47;5123636;27;20138;-94
2024/02/07 12:34:03;;;;;;;9.40;4.10;;;;;;;15.02;100.00;98608.66;5121696;27;20042;-94
2024/02/07 12:36:28;;;;;;;9.85;4.40;;;;;;;15.15;100.00;98612.47;5123225;27;20032;-93
2024/02/07 12:38:54;;;;;;;12.43;4.07;;;;;;;14.57;100.00;98585.75;5120128;27;20023;-94